sensor_id;sensor_type;location;lat;lon;timestamp;pressure;altitude;pressure_sealevel;temperature;humidity
10732;BME280;5417;42.686;23.244;2023-02-18T00:01:00;95016.72;;;7.83;46.31
10732;BME280;5417;42.686;23.244;2023-02-18T00:03:29;95021.53;;;7.89;46.96
10732;BME280;5417;42.686;23.244;2023-02-18T00:05:57;95012.28;;;7.85;46.72
10732;BME280;5417;42.686;23.244;2023-02-18T00:08:23;95009.78;;;7.83;47.50
10732;BME280;5417;42.686;23.244;2023-02-18T00:10:50;95005.25;;;7.87;46.34
10732;BME280;5417;42.686;23.244;2023-02-18T00:13:18;94998.41;;;7.86;46.34
10732;BME280;5417;42.686;23.244;2023-02-18T00:15:45;95009.03;;;7.81;46.59
10732;BME280;5417;42.686;23.244;2023-02-18T00:18:13;94995.59;;;7.75;46.99
10732;BME280;5417;42.686;23.244;2023-02-18T00:20:42;94982.75;;;7.73;46.83
10732;BME280;5417;42.686;23.244;2023-02-18T00:23:09;94965.63;;;7.71;47.16
10732;BME280;5417;42.686;23.244;2023-02-18T00:25:35;94989.03;;;7.69;47.43
10732;BME280;5417;42.686;23.244;2023-02-18T00:28:02;94978.41;;;7.59;47.26
10732;BME280;5417;42.686;23.244;2023-02-18T00:30:29;94980.06;;;7.60;47.54
10732;BME280;5417;42.686;23.244;2023-02-18T00:32:56;94964.72;;;7.57;47.88
10732;BME280;5417;42.686;23.244;2023-02-18T00:35:25;94956.84;;;7.59;46.93
10732;BME280;5417;42.686;23.244;2023-02-18T00:37:52;94970.34;;;7.64;47.37
10732;BME280;5417;42.686;23.244;2023-02-18T00:40:19;94970.63;;;7.59;47.37
10732;BME280;5417;42.686;23.244;2023-02-18T00:42:46;94966.94;;;7.35;47.40
10732;BME280;5417;42.686;23.244;2023-02-18T00:45:13;94984.50;;;7.30;47.65
10732;BME280;5417;42.686;23.244;2023-02-18T00:47:40;94966.38;;;7.30;47.52
10732;BME280;5417;42.686;23.244;2023-02-18T00:50:09;94973.97;;;7.33;47.32
10732;BME280;5417;42.686;23.244;2023-02-18T00:52:37;94974.78;;;7.34;48.13
10732;BME280;5417;42.686;23.244;2023-02-18T00:55:05;94953.72;;;7.40;47.52
10732;BME280;5417;42.686;23.244;2023-02-18T00:57:32;94965.44;;;7.31;47.25
10732;BME280;5417;42.686;23.244;2023-02-18T00:59:59;94970.78;;;7.28;47.56
10732;BME280;5417;42.686;23.244;2023-02-18T01:02:26;94967.53;;;7.24;48.15
10732;BME280;5417;42.686;23.244;2023-02-18T01:04:52;94965.00;;;7.39;47.65
10732;BME280;5417;42.686;23.244;2023-02-18T01:07:19;94960.19;;;7.33;47.93
10732;BME280;5417;42.686;23.244;2023-02-18T01:09:47;94966.53;;;7.27;48.24
10732;BME280;5417;42.686;23.244;2023-02-18T01:12:14;94950.34;;;7.23;47.92
10732;BME280;5417;42.686;23.244;2023-02-18T01:14:41;94946.88;;;7.39;47.76
10732;BME280;5417;42.686;23.244;2023-02-18T01:17:09;94954.25;;;7.31;47.51
10732;BME280;5417;42.686;23.244;2023-02-18T01:19:35;94943.50;;;7.22;48.38
10732;BME280;5417;42.686;23.244;2023-02-18T01:22:02;94963.28;;;7.23;47.96
10732;BME280;5417;42.686;23.244;2023-02-18T01:24:31;94950.06;;;7.14;48.11
10732;BME280;5417;42.686;23.244;2023-02-18T01:26:59;94955.16;;;7.15;48.47
10732;BME280;5417;42.686;23.244;2023-02-18T01:29:26;94947.28;;;7.03;48.91
10732;BME280;5417;42.686;23.244;2023-02-18T01:31:53;94936.63;;;6.93;48.72
10732;BME280;5417;42.686;23.244;2023-02-18T01:34:20;94954.94;;;7.04;48.96
10732;BME280;5417;42.686;23.244;2023-02-18T01:36:47;94955.88;;;7.03;48.92
10732;BME280;5417;42.686;23.244;2023-02-18T01:39:15;94956.44;;;7.08;49.15
10732;BME280;5417;42.686;23.244;2023-02-18T01:41:42;94964.03;;;7.11;48.86
10732;BME280;5417;42.686;23.244;2023-02-18T01:44:12;94957.44;;;7.06;48.84
10732;BME280;5417;42.686;23.244;2023-02-18T01:46:39;94955.50;;;7.09;48.66
10732;BME280;5417;42.686;23.244;2023-02-18T01:49:06;94967.44;;;7.12;49.20
10732;BME280;5417;42.686;23.244;2023-02-18T01:51:36;94955.13;;;7.01;48.85
10732;BME280;5417;42.686;23.244;2023-02-18T01:54:07;94964.66;;;7.01;49.28
10732;BME280;5417;42.686;23.244;2023-02-18T01:56:38;94971.22;;;7.06;48.99
10732;BME280;5417;42.686;23.244;2023-02-18T01:59:09;94964.56;;;7.02;49.20
10732;BME280;5417;42.686;23.244;2023-02-18T02:01:40;94982.13;;;6.97;49.03
10732;BME280;5417;42.686;23.244;2023-02-18T02:04:08;94976.31;;;7.08;48.91
10732;BME280;5417;42.686;23.244;2023-02-18T02:06:35;94980.53;;;6.94;49.29
10732;BME280;5417;42.686;23.244;2023-02-18T02:09:05;94965.09;;;6.93;48.87
10732;BME280;5417;42.686;23.244;2023-02-18T02:14:53;94951.72;;;7.01;49.33
10732;BME280;5417;42.686;23.244;2023-02-18T02:17:29;94978.72;;;7.11;49.37
10732;BME280;5417;42.686;23.244;2023-02-18T02:20:25;94961.50;;;6.95;48.83
10732;BME280;5417;42.686;23.244;2023-02-18T02:32:15;94963.06;;;6.84;49.57
10732;BME280;5417;42.686;23.244;2023-02-18T02:34:52;94949.66;;;6.91;50.21
10732;BME280;5417;42.686;23.244;2023-02-18T02:37:25;94939.53;;;6.73;50.35
10732;BME280;5417;42.686;23.244;2023-02-18T02:40:01;94931.78;;;6.73;49.98
10732;BME280;5417;42.686;23.244;2023-02-18T02:42:39;94944.53;;;6.76;50.28
10732;BME280;5417;42.686;23.244;2023-02-18T02:45:17;94943.84;;;6.58;50.18
10732;BME280;5417;42.686;23.244;2023-02-18T02:47:51;94933.34;;;6.45;50.72
10732;BME280;5417;42.686;23.244;2023-02-18T02:50:27;94941.69;;;6.50;51.40
10732;BME280;5417;42.686;23.244;2023-02-18T02:53:00;94935.13;;;6.45;50.99
10732;BME280;5417;42.686;23.244;2023-02-18T02:55:28;94934.59;;;6.54;51.06
10732;BME280;5417;42.686;23.244;2023-02-18T02:57:55;94923.84;;;6.46;50.81
10732;BME280;5417;42.686;23.244;2023-02-18T03:00:27;94939.75;;;6.54;50.79
10732;BME280;5417;42.686;23.244;2023-02-18T03:03:09;94960.56;;;6.37;51.59
10732;BME280;5417;42.686;23.244;2023-02-18T03:05:57;94980.75;;;6.30;51.62
10732;BME280;5417;42.686;23.244;2023-02-18T03:08:36;94961.66;;;6.32;51.18
10732;BME280;5417;42.686;23.244;2023-02-18T03:11:07;94975.25;;;6.36;51.09
10732;BME280;5417;42.686;23.244;2023-02-18T03:13:55;94960.81;;;6.32;51.60
10732;BME280;5417;42.686;23.244;2023-02-18T03:16:26;94962.53;;;6.47;51.35
10732;BME280;5417;42.686;23.244;2023-02-18T03:19:00;94956.50;;;6.32;51.25
10732;BME280;5417;42.686;23.244;2023-02-18T03:21:31;94953.06;;;6.32;51.62
10732;BME280;5417;42.686;23.244;2023-02-18T03:24:02;94971.47;;;6.42;50.95
10732;BME280;5417;42.686;23.244;2023-02-18T03:26:33;94970.31;;;6.47;50.74
10732;BME280;5417;42.686;23.244;2023-02-18T03:29:05;94978.63;;;6.52;50.72
10732;BME280;5417;42.686;23.244;2023-02-18T03:31:36;94985.69;;;6.64;50.23
10732;BME280;5417;42.686;23.244;2023-02-18T03:34:07;94983.28;;;6.61;50.92
10732;BME280;5417;42.686;23.244;2023-02-18T03:36:36;94986.63;;;6.63;50.62
10732;BME280;5417;42.686;23.244;2023-02-18T03:39:06;94989.03;;;6.67;50.29
10732;BME280;5417;42.686;23.244;2023-02-18T03:41:34;94998.63;;;6.64;50.66
10732;BME280;5417;42.686;23.244;2023-02-18T03:44:04;94990.03;;;6.64;51.26
10732;BME280;5417;42.686;23.244;2023-02-18T03:46:32;94990.66;;;6.53;51.24
10732;BME280;5417;42.686;23.244;2023-02-18T03:48:59;95003.56;;;6.53;50.90
10732;BME280;5417;42.686;23.244;2023-02-18T03:51:26;95009.50;;;6.55;50.81
10732;BME280;5417;42.686;23.244;2023-02-18T03:53:55;95009.94;;;6.48;51.02
10732;BME280;5417;42.686;23.244;2023-02-18T03:56:22;95015.59;;;6.54;50.33
10732;BME280;5417;42.686;23.244;2023-02-18T03:58:49;95005.84;;;6.44;50.94
10732;BME280;5417;42.686;23.244;2023-02-18T04:01:16;95016.84;;;6.47;51.47
10732;BME280;5417;42.686;23.244;2023-02-18T04:03:43;95005.66;;;6.47;51.80
10732;BME280;5417;42.686;23.244;2023-02-18T04:06:10;95004.66;;;6.49;51.28
10732;BME280;5417;42.686;23.244;2023-02-18T04:08:37;94998.31;;;6.55;51.23
10732;BME280;5417;42.686;23.244;2023-02-18T04:11:05;94998.06;;;6.59;51.30
10732;BME280;5417;42.686;23.244;2023-02-18T04:13:32;94975.69;;;6.58;50.51
10732;BME280;5417;42.686;23.244;2023-02-18T04:16:00;94993.53;;;6.63;50.44
10732;BME280;5417;42.686;23.244;2023-02-18T04:18:26;94984.88;;;6.64;50.72
10732;BME280;5417;42.686;23.244;2023-02-18T04:20:53;94970.25;;;6.63;50.25
10732;BME280;5417;42.686;23.244;2023-02-18T04:23:20;94972.91;;;6.77;50.76
10732;BME280;5417;42.686;23.244;2023-02-18T04:25:47;94974.25;;;6.69;50.99
10732;BME280;5417;42.686;23.244;2023-02-18T04:28:16;94961.09;;;6.57;50.65
10732;BME280;5417;42.686;23.244;2023-02-18T04:30:44;94952.13;;;6.49;51.61
10732;BME280;5417;42.686;23.244;2023-02-18T04:33:11;94959.31;;;6.44;51.70
10732;BME280;5417;42.686;23.244;2023-02-18T04:35:38;94965.22;;;6.46;51.07
10732;BME280;5417;42.686;23.244;2023-02-18T04:38:06;94965.03;;;6.49;52.16
10732;BME280;5417;42.686;23.244;2023-02-18T04:40:34;94962.53;;;6.47;51.52
10732;BME280;5417;42.686;23.244;2023-02-18T04:43:01;94950.81;;;6.42;51.80
10732;BME280;5417;42.686;23.244;2023-02-18T04:45:29;94955.75;;;6.30;52.44
10732;BME280;5417;42.686;23.244;2023-02-18T04:47:56;94945.97;;;6.36;51.47
10732;BME280;5417;42.686;23.244;2023-02-18T04:50:23;94969.56;;;6.45;50.39
10732;BME280;5417;42.686;23.244;2023-02-18T04:52:50;94956.41;;;6.64;49.03
10732;BME280;5417;42.686;23.244;2023-02-18T04:55:18;94959.06;;;6.78;49.53
10732;BME280;5417;42.686;23.244;2023-02-18T04:57:45;94955.50;;;6.95;49.48
10732;BME280;5417;42.686;23.244;2023-02-18T05:00:14;94975.91;;;6.85;49.78
10732;BME280;5417;42.686;23.244;2023-02-18T05:02:43;94978.97;;;6.92;50.01
10732;BME280;5417;42.686;23.244;2023-02-18T05:05:10;94992.28;;;6.70;49.79
10732;BME280;5417;42.686;23.244;2023-02-18T05:07:37;95011.34;;;6.53;50.64
10732;BME280;5417;42.686;23.244;2023-02-18T05:10:05;95015.84;;;6.50;51.16
10732;BME280;5417;42.686;23.244;2023-02-18T05:12:32;95011.41;;;6.52;50.89
10732;BME280;5417;42.686;23.244;2023-02-18T05:14:59;95018.16;;;6.54;51.35
10732;BME280;5417;42.686;23.244;2023-02-18T05:17:26;95000.72;;;6.58;51.31
10732;BME280;5417;42.686;23.244;2023-02-18T05:19:55;94987.06;;;6.56;51.25
10732;BME280;5417;42.686;23.244;2023-02-18T05:22:21;94966.88;;;6.47;51.15
10732;BME280;5417;42.686;23.244;2023-02-18T05:24:48;94980.47;;;6.50;50.95
10732;BME280;5417;42.686;23.244;2023-02-18T05:27:15;94974.13;;;6.56;50.74
10732;BME280;5417;42.686;23.244;2023-02-18T05:29:43;94965.22;;;6.46;51.49
10732;BME280;5417;42.686;23.244;2023-02-18T05:32:15;94985.22;;;6.58;51.19
10732;BME280;5417;42.686;23.244;2023-02-18T05:34:42;94974.88;;;6.58;51.51
10732;BME280;5417;42.686;23.244;2023-02-18T05:37:10;94966.66;;;6.65;50.96
10732;BME280;5417;42.686;23.244;2023-02-18T05:39:39;94956.09;;;6.54;51.29
10732;BME280;5417;42.686;23.244;2023-02-18T05:42:06;94974.81;;;6.74;50.86
10732;BME280;5417;42.686;23.244;2023-02-18T05:44:33;94977.31;;;6.75;51.28
10732;BME280;5417;42.686;23.244;2023-02-18T05:47:02;94973.81;;;6.76;51.74
10732;BME280;5417;42.686;23.244;2023-02-18T05:49:30;94980.91;;;6.88;51.57
10732;BME280;5417;42.686;23.244;2023-02-18T05:51:58;94979.75;;;6.78;51.63
10732;BME280;5417;42.686;23.244;2023-02-18T05:54:26;94983.19;;;6.79;51.58
10732;BME280;5417;42.686;23.244;2023-02-18T05:56:53;94985.16;;;6.89;50.42
10732;BME280;5417;42.686;23.244;2023-02-18T05:59:20;95000.69;;;6.89;50.16
10732;BME280;5417;42.686;23.244;2023-02-18T06:01:48;94997.81;;;6.94;49.80
10732;BME280;5417;42.686;23.244;2023-02-18T06:04:14;95011.84;;;6.90;50.30
10732;BME280;5417;42.686;23.244;2023-02-18T06:06:42;94999.84;;;6.89;51.78
10732;BME280;5417;42.686;23.244;2023-02-18T06:09:09;94985.91;;;6.91;52.02
10732;BME280;5417;42.686;23.244;2023-02-18T06:11:38;94998.59;;;7.10;50.51
10732;BME280;5417;42.686;23.244;2023-02-18T06:14:05;95000.41;;;7.52;55.88
10732;BME280;5417;42.686;23.244;2023-02-18T06:16:32;94998.19;;;7.60;51.73
10732;BME280;5417;42.686;23.244;2023-02-18T06:18:59;94969.44;;;7.51;51.18
10732;BME280;5417;42.686;23.244;2023-02-18T06:21:26;95005.22;;;7.73;49.81
10732;BME280;5417;42.686;23.244;2023-02-18T06:23:53;94997.00;;;7.66;49.96
10732;BME280;5417;42.686;23.244;2023-02-18T06:26:20;94991.34;;;7.74;50.13
10732;BME280;5417;42.686;23.244;2023-02-18T06:28:52;94993.94;;;7.88;48.76
10732;BME280;5417;42.686;23.244;2023-02-18T06:31:19;94986.97;;;8.03;47.94
10732;BME280;5417;42.686;23.244;2023-02-18T06:33:48;94982.44;;;8.06;47.86
10732;BME280;5417;42.686;23.244;2023-02-18T06:36:21;94975.13;;;8.13;48.64
10732;BME280;5417;42.686;23.244;2023-02-18T06:38:50;94971.09;;;8.21;47.40
10732;BME280;5417;42.686;23.244;2023-02-18T06:41:18;94981.09;;;8.42;47.66
10732;BME280;5417;42.686;23.244;2023-02-18T06:43:45;94984.25;;;8.33;47.84
10732;BME280;5417;42.686;23.244;2023-02-18T06:46:13;94989.31;;;8.48;47.28
10732;BME280;5417;42.686;23.244;2023-02-18T06:48:41;94995.31;;;8.36;47.81
10732;BME280;5417;42.686;23.244;2023-02-18T06:51:10;94978.16;;;8.34;48.65
10732;BME280;5417;42.686;23.244;2023-02-18T06:53:38;94968.63;;;8.34;47.47
10732;BME280;5417;42.686;23.244;2023-02-18T06:56:12;94973.88;;;8.33;47.73
10732;BME280;5417;42.686;23.244;2023-02-18T06:58:52;94964.59;;;8.29;48.77
10732;BME280;5417;42.686;23.244;2023-02-18T07:01:20;94973.97;;;8.45;47.53
10732;BME280;5417;42.686;23.244;2023-02-18T07:03:47;94987.41;;;8.38;47.77
10732;BME280;5417;42.686;23.244;2023-02-18T07:06:16;94981.50;;;8.36;47.99
10732;BME280;5417;42.686;23.244;2023-02-18T07:08:45;94968.13;;;8.28;47.47
10732;BME280;5417;42.686;23.244;2023-02-18T07:11:12;94978.16;;;8.34;49.26
10732;BME280;5417;42.686;23.244;2023-02-18T07:13:40;94965.22;;;8.32;49.16
10732;BME280;5417;42.686;23.244;2023-02-18T07:16:09;94953.41;;;8.28;47.97
10732;BME280;5417;42.686;23.244;2023-02-18T07:18:37;94960.25;;;8.29;47.54
10732;BME280;5417;42.686;23.244;2023-02-18T07:21:04;94951.44;;;8.32;47.56
10732;BME280;5417;42.686;23.244;2023-02-18T07:23:31;94959.19;;;8.33;47.50
10732;BME280;5417;42.686;23.244;2023-02-18T07:26:09;94954.19;;;8.57;46.58
10732;BME280;5417;42.686;23.244;2023-02-18T07:28:36;94949.72;;;8.59;46.93
10732;BME280;5417;42.686;23.244;2023-02-18T07:31:04;94942.06;;;8.70;46.38
10732;BME280;5417;42.686;23.244;2023-02-18T07:33:31;94944.03;;;8.67;46.84
10732;BME280;5417;42.686;23.244;2023-02-18T07:36:01;94970.56;;;8.84;47.54
10732;BME280;5417;42.686;23.244;2023-02-18T07:38:28;94977.97;;;9.03;47.45
10732;BME280;5417;42.686;23.244;2023-02-18T07:40:58;94976.94;;;9.31;47.06
10732;BME280;5417;42.686;23.244;2023-02-18T07:43:25;94978.41;;;9.35;46.20
10732;BME280;5417;42.686;23.244;2023-02-18T07:45:57;94974.81;;;9.38;46.66
10732;BME280;5417;42.686;23.244;2023-02-18T07:48:30;94987.28;;;9.45;47.45
10732;BME280;5417;42.686;23.244;2023-02-18T07:50:58;94996.94;;;9.43;45.76
10732;BME280;5417;42.686;23.244;2023-02-18T07:53:29;94992.56;;;9.44;46.59
10732;BME280;5417;42.686;23.244;2023-02-18T07:56:03;94989.34;;;9.40;45.69
10732;BME280;5417;42.686;23.244;2023-02-18T07:58:32;94995.28;;;9.55;46.24
10732;BME280;5417;42.686;23.244;2023-02-18T08:01:00;94946.72;;;9.56;46.34
10732;BME280;5417;42.686;23.244;2023-02-18T08:03:31;94974.56;;;9.79;45.62
10732;BME280;5417;42.686;23.244;2023-02-18T08:05:59;94969.66;;;9.87;45.24
10732;BME280;5417;42.686;23.244;2023-02-18T08:08:29;94977.03;;;10.06;44.86
10732;BME280;5417;42.686;23.244;2023-02-18T08:10:58;94984.78;;;10.19;44.30
10732;BME280;5417;42.686;23.244;2023-02-18T08:13:29;94985.28;;;10.36;44.03
10732;BME280;5417;42.686;23.244;2023-02-18T08:16:12;94984.47;;;10.36;44.31
10732;BME280;5417;42.686;23.244;2023-02-18T08:18:39;94975.50;;;10.40;43.79
10732;BME280;5417;42.686;23.244;2023-02-18T08:21:06;94965.06;;;10.53;44.07
10732;BME280;5417;42.686;23.244;2023-02-18T08:23:39;94970.22;;;10.65;43.98
10732;BME280;5417;42.686;23.244;2023-02-18T08:26:06;94952.47;;;10.70;43.42
10732;BME280;5417;42.686;23.244;2023-02-18T08:28:36;94963.50;;;10.74;43.73
10732;BME280;5417;42.686;23.244;2023-02-18T08:31:05;94947.66;;;10.77;43.37
10732;BME280;5417;42.686;23.244;2023-02-18T08:33:34;94944.28;;;10.64;43.04
10732;BME280;5417;42.686;23.244;2023-02-18T08:36:07;94951.25;;;10.63;43.41
10732;BME280;5417;42.686;23.244;2023-02-18T08:38:35;94939.16;;;10.51;43.20
10732;BME280;5417;42.686;23.244;2023-02-18T08:41:05;94950.78;;;10.58;43.29
10732;BME280;5417;42.686;23.244;2023-02-18T08:43:32;94946.03;;;10.39;43.57
10732;BME280;5417;42.686;23.244;2023-02-18T08:45:59;94945.88;;;10.30;43.72
10732;BME280;5417;42.686;23.244;2023-02-18T08:48:27;94943.75;;;10.48;44.00
10732;BME280;5417;42.686;23.244;2023-02-18T08:50:54;94942.19;;;10.45;43.67
10732;BME280;5417;42.686;23.244;2023-02-18T08:53:22;94944.34;;;10.51;44.03
10732;BME280;5417;42.686;23.244;2023-02-18T08:55:48;94951.41;;;10.73;44.40
10732;BME280;5417;42.686;23.244;2023-02-18T08:58:20;94951.66;;;10.70;43.82
10732;BME280;5417;42.686;23.244;2023-02-18T09:00:50;94965.25;;;10.73;44.47
10732;BME280;5417;42.686;23.244;2023-02-18T09:03:16;94944.59;;;10.83;44.28
10732;BME280;5417;42.686;23.244;2023-02-18T09:05:45;94954.66;;;10.88;44.52
10732;BME280;5417;42.686;23.244;2023-02-18T09:08:18;94957.81;;;11.04;44.21
10732;BME280;5417;42.686;23.244;2023-02-18T09:10:46;94964.59;;;11.18;43.29
10732;BME280;5417;42.686;23.244;2023-02-18T09:13:17;94962.75;;;11.31;43.82
10732;BME280;5417;42.686;23.244;2023-02-18T09:15:55;94957.19;;;11.35;43.30
10732;BME280;5417;42.686;23.244;2023-02-18T09:18:22;94952.22;;;11.44;43.49
10732;BME280;5417;42.686;23.244;2023-02-18T09:20:50;94960.31;;;11.63;43.12
10732;BME280;5417;42.686;23.244;2023-02-18T09:23:17;94964.84;;;11.83;43.37
10732;BME280;5417;42.686;23.244;2023-02-18T09:25:45;94955.84;;;12.10;43.21
10732;BME280;5417;42.686;23.244;2023-02-18T09:28:18;94944.66;;;12.30;41.96
10732;BME280;5417;42.686;23.244;2023-02-18T09:30:45;94932.41;;;12.53;41.43
10732;BME280;5417;42.686;23.244;2023-02-18T09:33:12;94925.56;;;12.73;40.63
10732;BME280;5417;42.686;23.244;2023-02-18T09:35:40;94923.19;;;13.02;39.95
10732;BME280;5417;42.686;23.244;2023-02-18T09:38:15;94925.38;;;13.17;39.63
10732;BME280;5417;42.686;23.244;2023-02-18T09:40:46;94933.66;;;13.22;39.66
10732;BME280;5417;42.686;23.244;2023-02-18T09:43:30;94931.75;;;13.45;39.64
10732;BME280;5417;42.686;23.244;2023-02-18T09:46:01;94930.47;;;13.61;39.46
10732;BME280;5417;42.686;23.244;2023-02-18T09:48:31;94926.66;;;13.74;38.83
10732;BME280;5417;42.686;23.244;2023-02-18T09:50:59;94926.06;;;13.92;38.21
10732;BME280;5417;42.686;23.244;2023-02-18T09:53:28;94922.13;;;14.07;38.72
10732;BME280;5417;42.686;23.244;2023-02-18T09:55:56;94924.50;;;14.19;38.15
10732;BME280;5417;42.686;23.244;2023-02-18T09:58:28;94918.03;;;14.24;37.42
10732;BME280;5417;42.686;23.244;2023-02-18T10:01:02;94910.06;;;14.25;38.16
10732;BME280;5417;42.686;23.244;2023-02-18T10:03:30;94902.25;;;14.44;37.10
10732;BME280;5417;42.686;23.244;2023-02-18T10:06:01;94896.91;;;14.65;37.18
10732;BME280;5417;42.686;23.244;2023-02-18T10:08:32;94899.69;;;14.73;35.94
10732;BME280;5417;42.686;23.244;2023-02-18T10:11:00;94887.94;;;14.97;35.86
10732;BME280;5417;42.686;23.244;2023-02-18T10:13:31;94889.16;;;15.22;35.61
10732;BME280;5417;42.686;23.244;2023-02-18T10:15:59;94887.72;;;15.46;34.17
10732;BME280;5417;42.686;23.244;2023-02-18T10:18:30;94889.78;;;15.62;33.72
10732;BME280;5417;42.686;23.244;2023-02-18T10:21:02;94890.88;;;15.69;32.13
10732;BME280;5417;42.686;23.244;2023-02-18T10:23:32;94879.00;;;15.65;32.19
10732;BME280;5417;42.686;23.244;2023-02-18T10:26:04;94888.09;;;15.71;30.93
10732;BME280;5417;42.686;23.244;2023-02-18T10:28:39;94870.75;;;15.88;32.07
10732;BME280;5417;42.686;23.244;2023-02-18T10:31:08;94864.94;;;16.21;32.02
10732;BME280;5417;42.686;23.244;2023-02-18T10:33:41;94867.50;;;16.49;31.22
10732;BME280;5417;42.686;23.244;2023-02-18T10:36:22;94859.22;;;16.71;30.61
10732;BME280;5417;42.686;23.244;2023-02-18T10:39:06;94869.66;;;16.81;30.40
10732;BME280;5417;42.686;23.244;2023-02-18T10:41:40;94859.66;;;16.84;30.73
10732;BME280;5417;42.686;23.244;2023-02-18T10:44:22;94852.28;;;17.06;30.40
10732;BME280;5417;42.686;23.244;2023-02-18T10:46:59;94856.22;;;17.27;30.16
10732;BME280;5417;42.686;23.244;2023-02-18T10:49:44;94851.34;;;17.32;29.39
10732;BME280;5417;42.686;23.244;2023-02-18T10:52:16;94845.44;;;17.39;28.16
10732;BME280;5417;42.686;23.244;2023-02-18T10:54:49;94835.94;;;17.46;28.02
10732;BME280;5417;42.686;23.244;2023-02-18T10:57:17;94844.91;;;17.61;28.23
10732;BME280;5417;42.686;23.244;2023-02-18T11:00:02;94842.22;;;17.71;27.64
10732;BME280;5417;42.686;23.244;2023-02-18T11:02:41;94837.13;;;17.51;28.14
10732;BME280;5417;42.686;23.244;2023-02-18T11:05:18;94833.75;;;17.15;27.72
10732;BME280;5417;42.686;23.244;2023-02-18T11:07:50;94834.13;;;16.77;28.22
10732;BME280;5417;42.686;23.244;2023-02-18T11:10:23;94824.53;;;16.67;28.80
10732;BME280;5417;42.686;23.244;2023-02-18T11:12:55;94820.84;;;16.78;28.85
10732;BME280;5417;42.686;23.244;2023-02-18T11:15:25;94816.91;;;16.29;28.67
10732;BME280;5417;42.686;23.244;2023-02-18T11:17:59;94820.97;;;16.23;28.94
10732;BME280;5417;42.686;23.244;2023-02-18T11:20:44;94821.75;;;16.06;29.01
10732;BME280;5417;42.686;23.244;2023-02-18T11:23:20;94818.41;;;16.14;29.68
10732;BME280;5417;42.686;23.244;2023-02-18T11:25:56;94817.66;;;16.21;29.17
10732;BME280;5417;42.686;23.244;2023-02-18T11:28:31;94790.41;;;16.22;29.05
10732;BME280;5417;42.686;23.244;2023-02-18T11:31:02;94802.88;;;16.56;29.16
10732;BME280;5417;42.686;23.244;2023-02-18T11:33:32;94786.94;;;16.57;28.91
10732;BME280;5417;42.686;23.244;2023-02-18T11:36:04;94791.47;;;16.83;28.25
10732;BME280;5417;42.686;23.244;2023-02-18T11:38:34;94782.72;;;17.00;28.75
10732;BME280;5417;42.686;23.244;2023-02-18T11:41:15;94774.50;;;17.03;28.24
10732;BME280;5417;42.686;23.244;2023-02-18T11:43:45;94765.38;;;17.15;28.42
10732;BME280;5417;42.686;23.244;2023-02-18T11:46:17;94775.75;;;17.17;27.83
10732;BME280;5417;42.686;23.244;2023-02-18T11:48:44;94775.63;;;17.18;27.57
10732;BME280;5417;42.686;23.244;2023-02-18T11:51:17;94764.63;;;17.23;28.18
10732;BME280;5417;42.686;23.244;2023-02-18T11:53:59;94782.81;;;17.16;27.77
10732;BME280;5417;42.686;23.244;2023-02-18T11:56:28;94769.97;;;17.13;28.35
10732;BME280;5417;42.686;23.244;2023-02-18T11:59:08;94758.38;;;17.24;28.42
10732;BME280;5417;42.686;23.244;2023-02-18T12:01:42;94754.44;;;17.28;28.19
10732;BME280;5417;42.686;23.244;2023-02-18T12:04:23;94750.81;;;17.21;28.67
10732;BME280;5417;42.686;23.244;2023-02-18T12:07:22;94742.94;;;17.29;29.30
10732;BME280;5417;42.686;23.244;2023-02-18T12:09:54;94741.56;;;17.51;28.16
10732;BME280;5417;42.686;23.244;2023-02-18T12:12:26;94741.25;;;17.62;29.13
10732;BME280;5417;42.686;23.244;2023-02-18T12:14:54;94732.19;;;17.56;27.73
10732;BME280;5417;42.686;23.244;2023-02-18T12:17:35;94736.72;;;17.38;28.35
10732;BME280;5417;42.686;23.244;2023-02-18T12:20:45;94743.41;;;16.98;28.78
10732;BME280;5417;42.686;23.244;2023-02-18T12:23:22;94746.25;;;16.61;28.97
10732;BME280;5417;42.686;23.244;2023-02-18T12:25:57;94730.44;;;16.35;29.57
10732;BME280;5417;42.686;23.244;2023-02-18T12:28:44;94733.16;;;16.26;30.05
10732;BME280;5417;42.686;23.244;2023-02-18T12:31:31;94714.78;;;16.26;29.75
10732;BME280;5417;42.686;23.244;2023-02-18T12:37:14;94717.31;;;16.61;30.55
10732;BME280;5417;42.686;23.244;2023-02-18T12:39:58;94710.78;;;16.83;29.96
10732;BME280;5417;42.686;23.244;2023-02-18T12:42:57;94704.28;;;16.95;30.16
10732;BME280;5417;42.686;23.244;2023-02-18T12:45:44;94700.56;;;17.06;29.88
10732;BME280;5417;42.686;23.244;2023-02-18T12:48:53;94698.63;;;17.16;30.37
10732;BME280;5417;42.686;23.244;2023-02-18T12:51:34;94691.84;;;17.06;29.73
10732;BME280;5417;42.686;23.244;2023-02-18T12:58:20;94690.63;;;17.18;29.90
10732;BME280;5417;42.686;23.244;2023-02-18T13:01:04;94687.84;;;17.27;29.43
10732;BME280;5417;42.686;23.244;2023-02-18T13:03:59;94682.31;;;17.39;29.76
10732;BME280;5417;42.686;23.244;2023-02-18T13:06:52;94687.44;;;17.48;29.91
10732;BME280;5417;42.686;23.244;2023-02-18T13:09:31;94688.91;;;17.51;29.57
10732;BME280;5417;42.686;23.244;2023-02-18T13:12:08;94686.94;;;17.53;29.65
10732;BME280;5417;42.686;23.244;2023-02-18T13:14:40;94687.94;;;17.52;29.85
10732;BME280;5417;42.686;23.244;2023-02-18T13:17:09;94684.44;;;17.43;30.27
10732;BME280;5417;42.686;23.244;2023-02-18T13:19:51;94680.00;;;17.44;29.79
10732;BME280;5417;42.686;23.244;2023-02-18T13:22:22;94686.78;;;17.54;29.95
10732;BME280;5417;42.686;23.244;2023-02-18T13:24:51;94695.47;;;17.47;29.47
10732;BME280;5417;42.686;23.244;2023-02-18T13:27:24;94691.19;;;17.38;30.15
10732;BME280;5417;42.686;23.244;2023-02-18T13:30:01;94688.66;;;17.20;30.17
10732;BME280;5417;42.686;23.244;2023-02-18T13:32:36;94673.88;;;16.93;30.27
10732;BME280;5417;42.686;23.244;2023-02-18T13:35:08;94692.66;;;17.06;30.87
10732;BME280;5417;42.686;23.244;2023-02-18T13:37:53;94686.91;;;17.02;30.73
10732;BME280;5417;42.686;23.244;2023-02-18T13:40:26;94695.63;;;17.03;31.08
10732;BME280;5417;42.686;23.244;2023-02-18T13:43:18;94695.47;;;17.04;30.85
10732;BME280;5417;42.686;23.244;2023-02-18T13:46:01;94691.66;;;16.99;31.53
10732;BME280;5417;42.686;23.244;2023-02-18T13:48:30;94689.88;;;17.08;31.29